Leando, Iowa
Current Conditions -  °F | °C
As of 4:15 PM on Monday 20 Oct 2014 (Local Time) from KFFL Reporting Station
Clear Clear  
Wind Chill: 68°   Ceiling: Unl
Heat Index: 68°   Visibility: NA
Dew Point: 41°   Wind: 16mph
Humidity: 37%   Direction: 310°NW
Pressure: 29.97"   Gusts: 22mph
Location:  40.8011°N, 92.0459°W
Report Text: KFFL 202115Z AUTO 31014G19KT CLR 20/05 A2997 RMK AO2
Loading
Personal Weather Stations






























Interactive Weather Map
Tropical Storm Tracking
New forecast layout! Learn more

10-Day Weather Forecast

Advertisements
Track Severe Weather on mobile